Nearby METAR Reports

 

EGNV - Tees-Side, United Kingdom
Distance from station: W 8mi, 13km
Updated: 20/08/2017 17:50
Few Clouds
Few Clouds
 Wind from WSW
Wind: WSW 6 mph , 9 km/h
Temperature: 17°C
Dew Point: 9°C
Humidity: 59%
Barometer: 1021 hPa
Clouds: Few Clouds
Visibility: 6 miles , 10 km
Cloud details: Few Clouds 1494 m
2017/08/20 16:50 EGNV 201650Z 24005KT 9999 FEW049 17/09 Q1021
EGXE - Leeming Raf, United Kingdom
Distance from station: SW 21mi, 34km
Updated: 20/08/2017 17:50
Mostly cloudy
Mostly cloudy
 Wind from WSW
Wind: WSW 7 mph , 11 km/h
Temperature: 17°C
Dew Point: 9°C
Humidity: 59%
Barometer: 1021 hPa
Clouds: Mostly cloudy
Visibility: 6 miles , 10 km
Cloud details: Mostly cloudy 5182 m
2017/08/20 16:50 EGXE 201650Z AUTO 24006KT 9999 BKN170/// 17/09 Q1021
 
EGXZ - Topcliffe Raf, United Kingdom
Distance from station: SSW 24mi, 38km
Updated: 20/08/2017 17:50
Mostly cloudy
Mostly cloudy
 Wind from SW
Wind: SW 8 mph , 13 km/h
Temperature: 17°C
Dew Point: 9°C
Humidity: 59%
Barometer: 1021 hPa
Clouds: Mostly cloudy
Visibility: 6 miles , 10 km
Cloud details: Mostly cloudy 5182 m
2017/08/20 16:50 EGXZ 201650Z AUTO 23007KT 9999 BKN170/// 17/09 Q1021
EGXD - Dishforth Raf, United Kingdom
Distance from station: SSW 29mi, 46km
Updated: 06/06/2016 10:50
NOT Current
Clear
Clear
 Wind from SSE
Wind: SSE 5 mph , 7 km/h
Temperature: 18°C
Dew Point: 11°C
Humidity: 64%
Barometer: 1023 hPa
Clouds: Clear
Visibility: 6 miles , 10 km
2016/06/06 09:50 EGXD 060950Z AUTO 16004KT 9999 // NCD 18/11 Q1023
 
EGXU - Linton-On-Ouse R, United Kingdom
Distance from station: S 33mi, 53km
Updated: 20/08/2017 17:50
Overcast
Overcast
 Wind from W
Wind: W 7 mph , 11 km/h
Temperature: 17°C
Dew Point: 8°C
Humidity: 56%
Barometer: 1021 hPa
Clouds: Overcast
Visibility: 6 miles , 10 km
Cloud details: Overcast 5182 m
2017/08/20 16:50 EGXU 201650Z AUTO 26006KT 9999 // OVC170/// 17/08 Q1021
EGNT - Newcastle, United Kingdom
Distance from station: NNW 39mi, 63km
Updated: 20/08/2017 17:50
Few Clouds
Few Clouds
 Wind from W
Wind: W 7 mph , 11 km/h
Temperature: 16°C
Dew Point: 10°C
Humidity: 68%
Barometer: 1021 hPa
Clouds: Few Clouds
Visibility: 6 miles , 10 km
Cloud details: Few Clouds 914 m
2017/08/20 16:50 EGNT 201650Z 28006KT 9999 FEW030 16/10 Q1021
 
EGNM - Leeds And Bradfo, United Kingdom
Distance from station: SSW 49mi, 79km
Updated: 20/08/2017 17:50
Few Clouds
Few Clouds
 Wind from NW
Wind: NW 6 mph , 9 km/h
Temperature: 15°C
Dew Point: 9°C
Humidity: 68%
Barometer: 1022 hPa
Clouds: Few Clouds
Visibility: 6 miles , 10 km
Cloud details: Few Clouds 853 m
2017/08/20 16:50 EGNM 201650Z 32005KT 9999 FEW028 15/09 Q1022